Time;durP1;ratioP1;P1;durP2;ratioP2;P2;SDS_P1;SDS_P2;PMS_P1;PMS_P2;Temp;Humidity;BMP_temperature;BMP_pressure;BME280_temperature;BME280_humidity;BME280_pressure;Samples;Min_cycle;Max_cycle;Signal;HPM_P1;HPM_P2
2023/05/28 00:17:52;;;;;;;26.02;9.88;;;10.30;76.40;;;;;;6216125;23;20104;-92
2023/05/28 00:24:12;;;;;;;24.33;9.70;;;10.30;76.40;;;;;;6170087;23;20030;-93
2023/05/28 00:26:38;;;;;;;23.90;9.70;;;10.40;76.40;;;;;;6131947;23;20013;-93
2023/05/28 00:29:31;;;;;;;25.93;9.70;;;10.40;76.30;;;;;;6083402;23;20017;-93
2023/05/28 00:35:32;;;;;;;27.30;10.37;;;10.40;76.40;;;;;;6102706;23;20182;-93
2023/05/28 00:42:12;;;;;;;24.03;9.80;;;10.40;76.60;;;;;;6152494;23;20478;-93
2023/05/28 00:49:07;;;;;;;27.47;9.93;;;10.30;76.50;;;;;;6153870;23;20025;-94
2023/05/28 00:52:14;;;;;;;23.90;10.32;;;10.30;76.50;;;;;;6130150;23;20049;-93
2023/05/28 01:11:24;;;;;;;30.70;12.87;;;10.20;76.60;;;;;;6156929;23;20483;-93
2023/05/28 01:13:51;;;;;;;26.93;11.57;;;10.20;76.30;;;;;;6150934;23;20167;-92
2023/05/28 01:20:05;;;;;;;;;;;10.20;76.50;;;;;;6128405;23;20064;-93
2023/05/28 01:27:01;;;;;;;25.93;10.90;;;10.20;76.50;;;;;;6184141;23;20012;-93
2023/05/28 01:44:06;;;;;;;27.07;10.13;;;10.10;76.80;;;;;;6260077;22;20497;-93
2023/05/28 01:50:40;;;;;;;26.97;10.33;;;10.20;77.00;;;;;;6199300;23;20039;-93
2023/05/28 02:02:13;;;;;;;;;;;;;;;;;;;;;
2023/05/28 02:21:35;;;;;;;;;;;;;;;;;;;;;
2023/05/28 02:32:03;;;;;;;26.95;10.20;;;10.10;77.10;;;;;;6067223;23;20031;-93
2023/05/28 02:38:42;;;;;;;29.87;11.23;;;10.00;77.20;;;;;;6124363;23;20049;-93
2023/05/28 02:49:01;;;;;;;;;;;;;;;;;;;;;
2023/05/28 03:41:09;;;;;;;;;;;;;;;;;;;;;
2023/05/28 03:48:45;;;;;;;25.13;11.23;;;9.60;77.30;;;;;;6185992;23;20020;-93
2023/05/28 04:17:10;;;;;;;29.17;12.97;;;9.60;77.60;;;;;;6174114;22;20036;-93
2023/05/28 04:44:09;;;;;;;30.73;12.50;;;9.80;77.80;;;;;;6043091;23;20446;-93
2023/05/28 05:06:33;;;;;;;;;;;;;;;;;;;;;
2023/05/28 05:13:38;;;;;;;28.65;11.45;;;10.60;78.00;;;;;;5743222;24;20081;-93
2023/05/28 05:27:41;;;;;;;21.17;8.52;;;12.30;77.80;;;;;;5928610;24;20024;-93
2023/05/28 05:30:36;;;;;;;23.45;8.40;;;12.60;76.70;;;;;;5949151;23;20027;-92
2023/05/28 05:33:23;;;;;;;20.08;8.05;;;12.70;75.80;;;;;;6044037;23;20025;-93
2023/05/28 05:35:56;;;;;;;16.98;7.90;;;12.90;75.70;;;;;;6075911;23;20061;-93
2023/05/28 05:38:25;;;;;;;18.52;7.05;;;13.00;75.50;;;;;;6094682;23;20023;-94
2023/05/28 05:41:05;;;;;;;23.85;7.70;;;13.10;75.30;;;;;;6075971;23;20025;-94
2023/05/28 05:43:33;;;;;;;17.67;7.32;;;13.10;75.20;;;;;;6052433;23;20023;-93
2023/05/28 05:46:02;;;;;;;20.23;6.90;;;13.10;75.30;;;;;;6067923;23;20029;-92
2023/05/28 05:48:39;;;;;;;;;;;13.30;75.30;;;;;;6070467;23;20101;-94
2023/05/28 05:51:16;;;;;;;19.25;7.05;;;13.40;75.10;;;;;;6075223;23;19940;-94
2023/05/28 05:53:42;;;;;;;22.25;6.70;;;13.40;75.10;;;;;;6072748;23;20088;-94
2023/05/28 05:56:27;;;;;;;;;;;;;;;;;;;;;
2023/05/28 05:59:08;;;;;;;17.13;6.28;;;13.60;75.50;;;;;;6096312;23;20500;-94
2023/05/28 06:01:36;;;;;;;21.25;6.97;;;13.70;75.30;;;;;;6076556;23;20024;-93
2023/05/28 06:04:07;;;;;;;16.70;6.38;;;13.70;75.00;;;;;;6070730;23;20025;-95
2023/05/28 06:06:38;;;;;;;17.17;6.63;;;13.70;75.10;;;;;;6074809;23;20022;-93
2023/05/28 06:09:04;;;;;;;20.77;6.05;;;13.70;75.20;;;;;;6060817;23;20026;-92
2023/05/28 06:11:36;;;;;;;21.23;6.90;;;13.70;75.00;;;;;;6074973;23;20491;-94
2023/05/28 06:14:05;;;;;;;;;;;13.80;75.00;;;;;;6097808;23;20093;-94
2023/05/28 06:16:35;;;;;;;21.52;7.18;;;13.80;74.10;;;;;;6075171;23;19913;-94
2023/05/28 06:19:29;;;;;;;18.73;8.05;;;13.70;74.40;;;;;;6101278;23;20021;-96
2023/05/28 06:21:55;;;;;;;20.58;6.95;;;13.70;74.00;;;;;;6053847;23;20029;-93
2023/05/28 06:24:21;;;;;;;17.17;7.47;;;13.70;74.10;;;;;;6061828;23;20021;-94
2023/05/28 06:26:52;;;;;;;21.15;7.22;;;13.70;74.00;;;;;;6050180;23;20262;-94
2023/05/28 06:29:29;;;;;;;16.65;7.63;;;13.70;73.90;;;;;;6087796;23;20355;-95
2023/05/28 06:31:55;;;;;;;24.23;7.70;;;13.70;73.40;;;;;;6103920;23;20444;-90
2023/05/28 06:34:23;;;;;;;21.85;7.28;;;13.70;73.90;;;;;;6126359;23;20025;-95
2023/05/28 06:36:52;;;;;;;19.70;8.18;;;13.90;73.70;;;;;;6091067;23;20022;-96
2023/05/28 06:39:23;;;;;;;19.05;8.02;;;13.90;73.20;;;;;;6102971;23;20017;-94
2023/05/28 06:41:52;;;;;;;17.85;8.45;;;13.80;73.30;;;;;;6104924;23;20021;-93
2023/05/28 06:44:23;;;;;;;24.60;10.65;;;13.70;73.30;;;;;;6101338;23;20096;-94
2023/05/28 06:46:52;;;;;;;37.65;21.50;;;13.70;73.40;;;;;;6099900;23;20021;-94
2023/05/28 06:49:18;;;;;;;31.77;18.05;;;13.70;73.00;;;;;;6127109;23;20033;-93
2023/05/28 06:51:51;;;;;;;37.13;19.45;;;13.70;71.90;;;;;;6103390;23;20017;-96
2023/05/28 06:54:40;;;;;;;26.67;16.45;;;13.60;71.80;;;;;;6111213;23;20480;-94
2023/05/28 06:57:06;;;;;;;28.23;13.70;;;13.60;70.90;;;;;;6092516;23;20045;-93
2023/05/28 06:59:35;;;;;;;24.15;12.20;;;13.70;71.60;;;;;;6103564;23;20383;-94
2023/05/28 07:02:10;;;;;;;26.20;12.07;;;13.70;71.20;;;;;;6104677;23;20013;-95
2023/05/28 07:04:59;;;;;;;23.55;10.88;;;13.70;70.90;;;;;;6102917;23;20032;-95
2023/05/28 07:07:48;;;;;;;17.63;9.07;;;13.70;70.70;;;;;;6104119;23;20976;-95
2023/05/28 07:14:01;;;;;;;12.50;6.50;;;13.80;69.10;;;;;;6090891;23;20024;-94
2023/05/28 07:16:27;;;;;;;13.90;6.05;;;13.90;69.40;;;;;;6102973;23;20014;-95
2023/05/28 07:18:53;;;;;;;13.18;5.30;;;13.90;68.60;;;;;;6100899;23;20093;-94
2023/05/28 07:21:32;;;;;;;11.20;5.45;;;13.90;68.00;;;;;;6104072;23;20076;-93
2023/05/28 07:24:08;;;;;;;;;;;;;;;;;;;;;
2023/05/28 07:26:40;;;;;;;7.00;4.57;;;14.00;66.20;;;;;;6118987;23;20017;-94
2023/05/28 07:29:16;;;;;;;11.38;4.63;;;14.00;66.10;;;;;;6060549;23;20088;-94
2023/05/28 07:31:41;;;;;;;10.07;4.25;;;14.10;66.10;;;;;;6075727;23;20020;-95
2023/05/28 07:34:07;;;;;;;12.27;4.32;;;14.20;65.70;;;;;;6062124;23;20105;-96
2023/05/28 07:36:43;;;;;;;9.57;4.47;;;14.30;65.50;;;;;;6068008;23;20014;-94
2023/05/28 07:39:25;;;;;;;10.00;3.88;;;14.30;64.90;;;;;;6076809;23;20025;-94
2023/05/28 07:42:03;;;;;;;8.20;3.90;;;14.40;64.20;;;;;;6026976;23;20476;-93
2023/05/28 07:44:38;;;;;;;;;;;;;;;;;;;;;
2023/05/28 07:47:14;;;;;;;11.57;4.28;;;14.50;64.20;;;;;;6094144;23;20689;-95
2023/05/28 07:50:22;;;;;;;8.73;4.15;;;14.60;63.30;;;;;;6029410;23;20456;-96
2023/05/28 07:55:53;;;;;;;8.48;3.95;;;14.80;64.10;;;;;;6104289;23;20105;-96
2023/05/28 07:58:19;;;;;;;11.18;4.45;;;14.90;61.90;;;;;;6074814;23;20033;-96
2023/05/28 08:01:49;;;;;;;10.82;4.90;;;14.90;62.30;;;;;;6081684;23;20479;-96
2023/05/28 08:04:18;;;;;;;8.65;4.28;;;14.80;60.70;;;;;;6158225;23;20454;-96
2023/05/28 08:07:30;;;;;;;;;;;;;;;;;;;;;
2023/05/28 08:10:54;;;;;;;14.30;4.95;;;14.90;63.00;;;;;;6169207;23;20098;-96
2023/05/28 08:14:10;;;;;;;;;;;15.00;63.00;;;;;;6104103;23;20021;-96
2023/05/28 08:20:24;;;;;;;13.82;5.55;;;15.20;62.30;;;;;;5999603;23;20022;-96
2023/05/28 08:23:24;;;;;;;13.95;5.43;;;15.20;63.20;;;;;;6122367;23;20059;-96
2023/05/28 08:26:06;;;;;;;10.90;4.88;;;15.10;63.20;;;;;;6053518;23;20018;-95
2023/05/28 08:32:17;;;;;;;11.07;4.75;;;15.20;62.70;;;;;;6091398;23;20024;-96
2023/05/28 08:35:00;;;;;;;9.63;5.18;;;15.30;63.50;;;;;;6129428;23;20018;-96
2023/05/28 08:37:37;;;;;;;9.95;4.70;;;15.30;63.00;;;;;;6175041;23;20023;-96
2023/05/28 08:40:18;;;;;;;14.07;4.95;;;15.40;63.70;;;;;;6198321;23;20016;-96
2023/05/28 08:43:11;;;;;;;14.15;6.00;;;15.30;63.20;;;;;;6157868;22;20021;-94
2023/05/28 08:46:18;;;;;;;12.40;5.47;;;15.40;62.70;;;;;;6153942;23;20023;-96
2023/05/28 08:48:44;;;;;;;12.40;5.53;;;15.40;63.40;;;;;;6223453;23;20086;-96
2023/05/28 08:51:17;;;;;;;13.07;5.55;;;15.50;63.60;;;;;;6197014;23;20020;-96
2023/05/28 08:53:50;;;;;;;9.52;5.50;;;15.50;62.70;;;;;;6196156;23;20096;-96
2023/05/28 08:56:26;;;;;;;;;;;;;;;;;;;;;
2023/05/28 09:01:50;;;;;;;13.95;5.82;;;15.60;62.60;;;;;;6227372;22;20021;-96
2023/05/28 09:07:05;;;;;;;12.70;6.10;;;16.00;62.60;;;;;;6215983;22;20128;-96
2023/05/28 09:09:40;;;;;;;13.02;6.25;;;16.00;61.70;;;;;;6169233;23;20078;-96
2023/05/28 09:16:08;;;;;;;9.13;5.35;;;16.00;61.40;;;;;;6077390;23;20042;-96
2023/05/28 09:19:41;;;;;;;12.00;6.28;;;16.10;59.80;;;;;;6035918;23;20070;-96
2023/05/28 09:22:24;;;;;;;15.63;6.28;;;16.10;59.60;;;;;;6134967;23;20347;-95
2023/05/28 09:24:52;;;;;;;9.80;5.93;;;16.10;60.90;;;;;;6149189;23;20028;-95
2023/05/28 09:27:33;;;;;;;11.88;6.63;;;16.10;61.40;;;;;;6145781;23;20013;-96
2023/05/28 09:30:05;;;;;;;;;;;16.30;61.20;;;;;;6193023;23;20462;-96
2023/05/28 09:32:34;;;;;;;11.65;6.60;;;16.40;59.00;;;;;;6165907;23;19920;-95
2023/05/28 09:35:12;;;;;;;12.35;6.88;;;16.40;60.80;;;;;;6149122;23;20009;-96
2023/05/28 09:37:40;;;;;;;11.00;6.82;;;16.40;60.10;;;;;;6139424;23;20096;-96
2023/05/28 09:40:12;;;;;;;14.75;6.45;;;16.50;60.20;;;;;;6192414;23;20078;-95
2023/05/28 09:42:50;;;;;;;12.15;6.15;;;16.50;60.00;;;;;;6165421;23;20066;-96
2023/05/28 09:45:25;;;;;;;13.57;6.47;;;16.60;60.10;;;;;;6192474;23;20106;-96
2023/05/28 09:47:51;;;;;;;12.20;6.13;;;16.70;59.30;;;;;;6172980;23;20099;-96
2023/05/28 09:50:17;;;;;;;12.73;6.50;;;16.70;59.80;;;;;;6192415;23;20526;-94
2023/05/28 09:52:44;;;;;;;11.27;6.68;;;16.80;59.60;;;;;;6188706;23;20021;-96
2023/05/28 09:55:15;;;;;;;12.30;6.70;;;16.80;59.30;;;;;;6188927;23;20023;-95
2023/05/28 09:57:46;;;;;;;11.98;6.35;;;16.80;59.20;;;;;;6182518;23;20020;-96
2023/05/28 10:00:37;;;;;;;13.27;6.47;;;16.90;58.90;;;;;;6198129;23;20156;-95
2023/05/28 10:03:19;;;;;;;9.68;5.28;;;17.00;57.80;;;;;;6180008;23;20104;-95
2023/05/28 10:10:13;;;;;;;8.70;5.10;;;17.00;59.00;;;;;;6013161;23;20047;-96
2023/05/28 10:12:42;;;;;;;11.00;4.95;;;17.20;57.10;;;;;;5956210;23;20025;-96
2023/05/28 10:15:20;;;;;;;8.13;4.05;;;17.10;58.10;;;;;;6003762;23;20027;-96
2023/05/28 10:17:47;;;;;;;8.38;4.07;;;17.10;58.00;;;;;;6002585;23;20528;-96
2023/05/28 10:20:35;;;;;;;7.60;3.58;;;17.10;58.00;;;;;;6096748;23;20012;-96
2023/05/28 10:23:52;;;;;;;;;;;;;;;;;;;;;
2023/05/28 10:37:05;;;;;;;6.18;3.38;;;17.20;56.40;;;;;;6014166;23;20031;-96
2023/05/28 10:39:46;;;;;;;7.47;3.97;;;17.30;57.30;;;;;;5990535;23;20019;-96
2023/05/28 10:42:29;;;;;;;6.55;3.45;;;17.40;57.40;;;;;;6044744;23;20022;-96
2023/05/28 10:45:36;;;;;;;10.43;3.50;;;17.50;56.70;;;;;;6079380;23;20019;-96
2023/05/28 10:48:22;;;;;;;8.63;4.10;;;17.50;55.70;;;;;;6112413;23;20025;-96
2023/05/28 10:54:20;;;;;;;7.78;3.50;;;17.50;57.40;;;;;;6132354;23;20020;-94
2023/05/28 10:57:38;;;;;;;;;;;17.60;57.00;;;;;;6201783;23;20020;-96
2023/05/28 11:00:48;;;;;;;8.80;4.00;;;17.60;57.70;;;;;;6214430;23;19959;-96
2023/05/28 11:03:54;;;;;;;8.85;3.70;;;17.60;57.00;;;;;;6173261;23;20017;-96
2023/05/28 11:06:21;;;;;;;8.77;3.63;;;17.60;59.20;;;;;;6166758;23;20025;-96
2023/05/28 11:08:53;;;;;;;8.40;4.10;;;17.60;59.80;;;;;;6176975;23;20040;-96
2023/05/28 11:11:41;;;;;;;8.32;4.10;;;17.60;60.20;;;;;;6158414;23;20039;-96
2023/05/28 11:14:06;;;;;;;12.45;4.55;;;17.60;60.00;;;;;;6197631;23;20021;-96
2023/05/28 11:17:56;;;;;;;14.80;4.63;;;17.60;60.10;;;;;;6162434;23;20045;-96
2023/05/28 11:20:50;;;;;;;12.00;4.68;;;17.50;60.70;;;;;;6103047;23;20024;-96
2023/05/28 11:23:25;;;;;;;11.82;4.35;;;17.60;61.40;;;;;;6061157;23;20021;-95
2023/05/28 11:26:22;;;;;;;12.00;4.50;;;17.60;61.50;;;;;;6138450;23;20025;-96
2023/05/28 11:29:15;;;;;;;8.00;4.10;;;17.60;61.30;;;;;;5941800;23;20258;-96
2023/05/28 11:35:30;;;;;;;10.45;4.38;;;17.50;61.20;;;;;;5925048;24;20024;-93
2023/05/28 11:38:17;;;;;;;10.27;4.40;;;17.50;61.90;;;;;;5897231;24;20465;-96
2023/05/28 11:40:46;;;;;;;11.52;4.35;;;17.50;61.90;;;;;;5911219;24;20070;-95
2023/05/28 11:43:14;;;;;;;11.75;4.80;;;17.50;62.20;;;;;;5912819;24;20021;-96
2023/05/28 11:45:53;;;;;;;9.15;3.95;;;17.50;62.30;;;;;;5935825;23;20025;-96
2023/05/28 11:48:42;;;;;;;15.25;4.45;;;17.50;62.50;;;;;;6011092;23;20027;-95
2023/05/28 11:55:26;;;;;;;12.32;4.57;;;17.50;62.80;;;;;;6004337;23;20067;-96
2023/05/28 11:57:58;;;;;;;12.65;4.45;;;17.40;62.70;;;;;;5991567;23;20031;-96
2023/05/28 12:01:12;;;;;;;11.07;4.47;;;17.20;63.20;;;;;;6104203;22;20048;-96
2023/05/28 12:03:45;;;;;;;13.40;4.65;;;17.30;63.20;;;;;;6167983;23;20056;-96
2023/05/28 12:06:41;;;;;;;13.90;4.20;;;17.20;63.30;;;;;;6198003;23;20021;-96
2023/05/28 12:09:46;;;;;;;10.45;4.40;;;17.20;63.10;;;;;;6148111;23;20028;-96
2023/05/28 12:12:27;;;;;;;11.15;3.92;;;17.20;63.20;;;;;;6194375;23;20024;-96
2023/05/28 12:15:15;;;;;;;14.80;4.32;;;17.00;63.70;;;;;;6172957;23;20383;-96
2023/05/28 12:18:40;;;;;;;12.15;4.55;;;17.00;63.50;;;;;;6197375;23;20008;-96
2023/05/28 12:21:15;;;;;;;10.32;4.00;;;17.00;64.00;;;;;;6200137;23;20020;-96
2023/05/28 12:23:44;;;;;;;10.95;4.07;;;17.00;64.00;;;;;;6152115;23;20043;-96
2023/05/28 12:26:25;;;;;;;12.95;4.47;;;17.10;64.30;;;;;;6145424;23;20405;-96
2023/05/28 12:28:54;;;;;;;9.63;3.92;;;17.20;63.30;;;;;;6097311;23;20079;-93
2023/05/28 12:31:41;;;;;;;14.02;3.95;;;17.20;63.50;;;;;;6161635;23;20099;-93
2023/05/28 12:34:11;;;;;;;12.77;3.58;;;17.20;63.20;;;;;;6187698;23;20075;-91
2023/05/28 12:36:48;;;;;;;14.50;4.22;;;17.00;62.70;;;;;;6160195;23;20016;-93
2023/05/28 12:39:20;;;;;;;14.32;3.97;;;17.00;62.60;;;;;;6139449;23;20028;-93
2023/05/28 12:41:48;;;;;;;13.93;3.95;;;17.00;62.20;;;;;;6189087;23;20024;-92
2023/05/28 12:44:25;;;;;;;11.40;3.67;;;17.00;62.10;;;;;;6123808;23;20028;-93
2023/05/28 12:46:52;;;;;;;12.35;3.95;;;16.90;61.90;;;;;;6135160;23;20012;-91
2023/05/28 12:49:21;;;;;;;17.33;4.53;;;17.00;62.20;;;;;;6187767;23;20025;-91
2023/05/28 12:51:47;;;;;;;15.80;4.47;;;16.90;62.40;;;;;;6116475;23;20024;-93
2023/05/28 12:54:15;;;;;;;11.07;3.72;;;16.90;62.80;;;;;;6163385;23;20024;-91
2023/05/28 12:56:41;;;;;;;10.48;3.83;;;16.90;63.00;;;;;;6137944;23;20012;-91
2023/05/28 12:59:29;;;;;;;14.43;4.68;;;17.00;62.90;;;;;;6135607;23;20027;-95
2023/05/28 13:02:15;;;;;;;;;;;;;;;;;;;;;
2023/05/28 13:04:50;;;;;;;10.82;3.70;;;16.90;63.00;;;;;;6212687;23;20013;-95
2023/05/28 13:07:16;;;;;;;12.35;3.67;;;16.90;62.70;;;;;;6220405;23;20398;-91
2023/05/28 13:09:51;;;;;;;12.93;4.10;;;16.90;62.70;;;;;;6164405;23;20047;-90
2023/05/28 13:12:16;;;;;;;13.75;3.65;;;17.00;62.50;;;;;;6201557;23;20465;-90
2023/05/28 13:14:42;;;;;;;9.98;3.80;;;16.90;62.30;;;;;;6189144;23;20052;-91
2023/05/28 13:17:11;;;;;;;12.35;3.85;;;16.90;62.30;;;;;;6206735;23;20443;-92
2023/05/28 13:19:37;;;;;;;11.13;3.53;;;16.90;62.10;;;;;;6214172;23;20021;-91
2023/05/28 13:22:36;;;;;;;;;;;;;;;;;;;;;
2023/05/28 13:25:09;;;;;;;12.35;3.60;;;16.90;62.00;;;;;;6213113;23;20019;-93
2023/05/28 13:27:35;;;;;;;9.43;3.55;;;17.00;61.80;;;;;;6205647;23;20017;-91
2023/05/28 13:30:10;;;;;;;10.38;3.78;;;16.90;61.10;;;;;;6188893;23;20021;-92
2023/05/28 13:32:39;;;;;;;12.98;3.70;;;16.90;60.90;;;;;;6162903;23;20086;-93
2023/05/28 13:35:17;;;;;;;14.32;3.90;;;16.90;61.30;;;;;;6213643;23;20087;-91
2023/05/28 13:37:46;;;;;;;16.00;4.63;;;16.90;61.20;;;;;;6186489;23;20382;-94
2023/05/28 13:40:15;;;;;;;14.95;3.80;;;17.00;61.40;;;;;;6213665;23;20024;-93
2023/05/28 13:42:59;;;;;;;12.20;4.20;;;17.00;61.60;;;;;;6201223;23;20016;-93
2023/05/28 13:45:46;;;;;;;;;;;;;;;;;;;;;
2023/05/28 13:48:25;;;;;;;10.25;3.80;;;16.90;62.20;;;;;;6206196;23;20013;-94
2023/05/28 13:50:56;;;;;;;12.77;3.90;;;17.00;62.30;;;;;;6188738;23;20051;-93
2023/05/28 13:53:37;;;;;;;12.93;4.07;;;17.00;62.60;;;;;;6230838;22;20024;-92
2023/05/28 13:56:17;;;;;;;;;;;;;;;;;;;;;
2023/05/28 13:59:14;;;;;;;10.70;3.80;;;17.00;63.00;;;;;;6191517;23;20024;-94
2023/05/28 14:01:42;;;;;;;14.32;4.28;;;17.00;62.90;;;;;;6213833;23;20017;-92
2023/05/28 14:04:08;;;;;;;14.00;4.13;;;17.00;63.40;;;;;;6200840;23;20048;-92
2023/05/28 14:06:35;;;;;;;14.80;4.85;;;17.00;63.70;;;;;;6209058;23;20254;-94
2023/05/28 14:09:10;;;;;;;13.63;4.97;;;17.00;64.00;;;;;;6173970;23;20023;-92
2023/05/28 14:11:36;;;;;;;11.52;4.70;;;17.10;64.30;;;;;;6214591;23;20024;-91
2023/05/28 14:14:07;;;;;;;10.35;4.05;;;17.00;64.20;;;;;;6176611;23;20069;-92
2023/05/28 14:16:57;;;;;;;21.08;4.93;;;16.90;64.30;;;;;;6163113;23;20638;-96
2023/05/28 14:19:22;;;;;;;16.60;5.25;;;16.80;64.30;;;;;;6181537;23;20094;-92
2023/05/28 14:21:48;;;;;;;14.23;5.22;;;16.80;64.50;;;;;;6214147;23;20017;-92
2023/05/28 14:24:19;;;;;;;14.75;4.85;;;16.80;64.80;;;;;;6176573;23;20035;-93
2023/05/28 14:30:02;;;;;;;16.90;5.53;;;16.70;65.50;;;;;;6121903;23;19916;-92
2023/05/28 14:33:07;;;;;;;20.27;5.70;;;16.70;65.60;;;;;;6188102;23;20439;-94
2023/05/28 14:35:41;;;;;;;17.25;6.53;;;16.70;65.50;;;;;;6159100;23;20317;-93
2023/05/28 14:38:16;;;;;;;12.55;5.65;;;16.60;65.70;;;;;;6184649;23;20078;-92
2023/05/28 14:40:45;;;;;;;12.93;5.45;;;16.50;65.80;;;;;;6190695;23;20036;-94
2023/05/28 14:43:10;;;;;;;15.57;6.15;;;16.40;65.80;;;;;;6211434;23;20351;-94
2023/05/28 14:45:42;;;;;;;20.08;6.00;;;16.30;66.10;;;;;;6213654;23;20021;-92
2023/05/28 14:48:10;;;;;;;15.18;5.95;;;16.30;66.50;;;;;;6186214;23;20040;-93
2023/05/28 14:50:42;;;;;;;18.10;6.88;;;16.40;66.40;;;;;;6164009;23;20099;-92
2023/05/28 14:53:07;;;;;;;15.00;6.68;;;16.30;66.60;;;;;;6201433;23;20020;-91
2023/05/28 14:55:37;;;;;;;14.68;6.40;;;16.20;66.60;;;;;;6190944;23;20017;-93
2023/05/28 14:58:05;;;;;;;15.32;6.45;;;16.20;66.70;;;;;;6207927;23;20108;-91
2023/05/28 15:00:31;;;;;;;13.43;6.07;;;16.10;66.80;;;;;;6190883;23;20469;-90
2023/05/28 15:02:57;;;;;;;17.65;6.75;;;16.20;66.80;;;;;;6169425;23;20021;-91
2023/05/28 15:05:26;;;;;;;18.27;6.80;;;16.10;66.80;;;;;;6126935;23;20028;-91
2023/05/28 15:07:52;;;;;;;19.13;7.13;;;16.00;67.00;;;;;;6137996;23;20028;-90
2023/05/28 15:10:37;;;;;;;20.98;7.65;;;15.90;67.10;;;;;;6141631;23;20016;-92
2023/05/28 15:13:28;;;;;;;16.83;7.68;;;15.90;67.50;;;;;;6187315;23;20025;-93
2023/05/28 15:16:19;;;;;;;;;;;;;;;;;;;;;
2023/05/28 15:19:18;;;;;;;;;;;;;;;;;;;;;
2023/05/28 15:21:44;;;;;;;20.30;8.25;;;16.20;67.30;;;;;;6189706;23;20023;-91
2023/05/28 15:24:34;;;;;;;17.20;7.88;;;16.30;67.50;;;;;;6146042;23;20052;-92
2023/05/28 15:27:10;;;;;;;16.50;8.65;;;16.40;67.50;;;;;;6188575;23;20091;-93
2023/05/28 15:29:43;;;;;;;20.38;8.00;;;16.10;67.30;;;;;;6125536;23;20024;-93
2023/05/28 15:32:10;;;;;;;17.55;8.02;;;16.00;67.50;;;;;;6126568;23;20499;-91
2023/05/28 15:34:43;;;;;;;15.68;7.53;;;15.80;67.60;;;;;;6142126;23;20290;-92
2023/05/28 15:37:17;;;;;;;19.63;8.38;;;15.60;67.80;;;;;;6185651;23;20009;-93
2023/05/28 15:39:46;;;;;;;18.40;8.18;;;15.40;68.10;;;;;;6164572;23;20021;-93
2023/05/28 15:42:12;;;;;;;21.67;8.18;;;15.40;68.40;;;;;;6189922;23;20447;-92
2023/05/28 15:44:38;;;;;;;18.00;8.40;;;15.40;68.50;;;;;;6165633;23;20020;-90
2023/05/28 15:47:05;;;;;;;15.45;7.63;;;15.40;68.50;;;;;;6187728;23;20069;-90
2023/05/28 15:49:30;;;;;;;10.75;6.40;;;15.40;68.50;;;;;;6188666;23;20531;-91
2023/05/28 15:52:09;;;;;;;17.70;7.50;;;15.40;68.40;;;;;;6168565;23;20218;-93
2023/05/28 15:54:35;;;;;;;14.73;7.05;;;15.20;68.30;;;;;;6138954;23;20482;-92
2023/05/28 15:57:01;;;;;;;16.83;7.88;;;15.00;68.40;;;;;;6132520;23;20327;-91
2023/05/28 15:59:27;;;;;;;16.00;8.02;;;14.90;68.80;;;;;;6161459;23;20482;-92
2023/05/28 16:02:19;;;;;;;14.27;7.25;;;14.90;69.00;;;;;;6199158;23;20020;-93
2023/05/28 16:04:51;;;;;;;14.63;7.68;;;15.00;69.10;;;;;;6218450;23;20031;-94
2023/05/28 16:07:17;;;;;;;17.23;8.20;;;15.10;68.80;;;;;;6166356;23;20109;-93
2023/05/28 16:09:45;;;;;;;12.57;7.00;;;15.20;68.70;;;;;;6245474;23;20012;-92
2023/05/28 16:12:33;;;;;;;13.30;7.47;;;15.20;68.60;;;;;;6218662;22;20016;-91
2023/05/28 16:15:09;;;;;;;13.05;6.80;;;15.20;68.60;;;;;;6194962;23;20439;-93
2023/05/28 16:17:44;;;;;;;14.93;7.18;;;15.20;68.70;;;;;;6137347;23;20042;-92
2023/05/28 16:20:13;;;;;;;18.58;7.40;;;15.30;68.50;;;;;;6172223;23;20020;-93
2023/05/28 16:22:51;;;;;;;15.68;7.38;;;15.20;68.60;;;;;;6193511;23;20016;-92
2023/05/28 16:25:17;;;;;;;18.08;7.38;;;15.00;68.80;;;;;;6194576;23;20024;-92
2023/05/28 16:27:43;;;;;;;18.30;6.88;;;15.00;69.10;;;;;;6171433;23;20327;-92
2023/05/28 16:30:09;;;;;;;14.90;5.53;;;14.80;69.10;;;;;;6194927;23;20108;-92
2023/05/28 16:32:38;;;;;;;16.50;6.88;;;14.70;69.00;;;;;;6177519;23;20020;-91
2023/05/28 16:35:07;;;;;;;;;;;14.60;69.20;;;;;;6171865;23;20024;-91
2023/05/28 16:37:33;;;;;;;15.30;6.72;;;14.40;69.70;;;;;;6190457;23;19915;-92
2023/05/28 16:40:25;;;;;;;14.75;7.72;;;14.40;69.40;;;;;;6169518;23;20051;-93
2023/05/28 16:42:51;;;;;;;19.33;7.07;;;14.30;69.50;;;;;;6128684;23;20029;-92
2023/05/28 16:45:20;;;;;;;16.23;7.60;;;14.30;69.80;;;;;;6178942;23;20016;-92
2023/05/28 16:47:47;;;;;;;14.65;7.00;;;14.30;69.90;;;;;;6172433;23;20020;-90
2023/05/28 16:50:14;;;;;;;15.07;6.90;;;14.30;69.90;;;;;;6194930;23;20020;-91
2023/05/28 16:52:47;;;;;;;16.98;7.22;;;14.20;70.00;;;;;;6155900;23;20098;-92
2023/05/28 16:55:19;;;;;;;13.30;6.60;;;14.20;70.10;;;;;;6219810;23;20012;-91
2023/05/28 16:57:45;;;;;;;15.90;6.95;;;14.10;70.10;;;;;;6190613;23;20450;-90
2023/05/28 17:00:20;;;;;;;10.07;5.93;;;13.90;70.20;;;;;;6221095;23;20016;-89
2023/05/28 17:02:51;;;;;;;13.63;6.30;;;13.90;70.30;;;;;;6187123;23;20463;-91
2023/05/28 17:05:21;;;;;;;12.77;6.20;;;13.90;70.40;;;;;;6198840;23;20026;-91
2023/05/28 17:07:48;;;;;;;11.70;6.22;;;13.90;70.40;;;;;;6215558;23;20063;-91
2023/05/28 17:10:16;;;;;;;13.88;6.78;;;13.90;70.40;;;;;;6219477;23;20454;-90
2023/05/28 17:12:42;;;;;;;15.95;7.18;;;13.90;70.40;;;;;;6191596;23;20474;-91
2023/05/28 17:15:11;;;;;;;13.32;5.78;;;13.80;70.60;;;;;;6193537;23;20020;-91
2023/05/28 17:17:37;;;;;;;14.20;6.25;;;13.80;70.70;;;;;;6173751;23;20040;-91
2023/05/28 17:20:07;;;;;;;11.27;5.25;;;13.70;70.60;;;;;;6194385;23;20543;-92
2023/05/28 17:22:34;;;;;;;14.07;5.82;;;13.60;70.40;;;;;;6192896;23;20016;-91
2023/05/28 17:25:05;;;;;;;14.90;6.00;;;13.50;70.30;;;;;;6169309;23;20039;-93
2023/05/28 17:27:34;;;;;;;12.70;6.03;;;13.50;70.60;;;;;;6167195;23;20020;-91
2023/05/28 17:30:03;;;;;;;16.42;6.13;;;13.50;70.60;;;;;;6194601;23;20346;-93
2023/05/28 17:32:30;;;;;;;13.57;5.50;;;13.50;70.50;;;;;;6191177;23;20465;-90
2023/05/28 17:34:58;;;;;;;16.17;6.43;;;13.50;70.60;;;;;;6193979;23;20513;-91
2023/05/28 17:37:26;;;;;;;12.02;5.50;;;13.50;70.50;;;;;;6214190;23;20103;-92
2023/05/28 17:39:57;;;;;;;16.15;6.25;;;13.50;70.50;;;;;;6193116;23;20051;-93
2023/05/28 17:42:27;;;;;;;;;;;13.50;70.70;;;;;;6217183;23;20066;-91
2023/05/28 17:44:53;;;;;;;10.98;4.45;;;13.50;70.70;;;;;;6194096;23;19915;-91
2023/05/28 17:47:20;;;;;;;11.55;4.50;;;13.50;70.20;;;;;;6211537;23;20020;-91
2023/05/28 17:49:55;;;;;;;18.05;4.78;;;13.50;70.20;;;;;;6144510;23;20125;-92
2023/05/28 17:52:20;;;;;;;16.48;4.63;;;13.50;70.10;;;;;;6222140;22;20091;-92
2023/05/28 17:54:46;;;;;;;16.98;4.57;;;13.50;70.10;;;;;;6215745;23;20058;-92
2023/05/28 17:57:15;;;;;;;17.20;4.95;;;13.50;70.00;;;;;;6210197;23;20099;-90
2023/05/28 17:59:44;;;;;;;16.67;4.40;;;13.40;69.90;;;;;;6193007;23;20051;-93
2023/05/28 18:02:12;;;;;;;13.25;4.30;;;13.30;69.70;;;;;;6191353;23;20597;-91
2023/05/28 18:04:41;;;;;;;14.00;4.32;;;13.30;69.50;;;;;;6168502;23;20031;-91
2023/05/28 18:07:07;;;;;;;15.52;4.35;;;13.20;69.50;;;;;;6188086;23;20016;-91
2023/05/28 18:09:32;;;;;;;19.60;4.65;;;13.10;69.40;;;;;;6218596;23;20012;-91
2023/05/28 18:11:58;;;;;;;21.65;4.65;;;13.00;69.40;;;;;;6193414;23;20098;-92
2023/05/28 18:14:30;;;;;;;19.25;5.10;;;13.00;69.60;;;;;;6192410;23;20459;-91
2023/05/28 18:16:58;;;;;;;25.20;5.15;;;12.90;69.90;;;;;;6214936;23;20012;-92
2023/05/28 18:19:25;;;;;;;16.27;4.13;;;12.80;69.80;;;;;;6153609;23;20046;-93
2023/05/28 18:22:00;;;;;;;20.88;4.60;;;12.80;69.80;;;;;;6193674;23;20077;-91
2023/05/28 18:24:25;;;;;;;16.50;4.32;;;12.70;69.50;;;;;;6204112;23;20050;-93
2023/05/28 18:26:51;;;;;;;19.30;4.57;;;12.60;69.30;;;;;;6212504;23;20012;-91
2023/05/28 18:29:17;;;;;;;17.98;4.50;;;12.50;69.10;;;;;;6165039;23;20047;-90
2023/05/28 18:31:45;;;;;;;19.60;4.63;;;12.50;69.10;;;;;;6218984;23;20455;-90
2023/05/28 18:34:19;;;;;;;18.75;4.93;;;12.50;68.90;;;;;;6167753;23;20452;-91
2023/05/28 18:36:47;;;;;;;21.15;4.38;;;12.50;69.00;;;;;;6189214;23;20012;-94
2023/05/28 18:39:13;;;;;;;24.70;5.50;;;12.40;69.10;;;;;;6192419;23;20024;-93
2023/05/28 18:41:39;;;;;;;19.80;4.78;;;12.30;69.20;;;;;;6192927;23;20046;-90
2023/05/28 18:44:05;;;;;;;24.80;5.32;;;12.30;69.30;;;;;;6166310;23;20020;-90
2023/05/28 18:46:34;;;;;;;23.05;5.13;;;12.20;69.40;;;;;;6164415;23;20023;-95
2023/05/28 18:49:00;;;;;;;20.02;4.93;;;12.20;69.70;;;;;;6177075;23;20024;-90
2023/05/28 18:51:27;;;;;;;23.48;5.38;;;12.10;69.70;;;;;;6168839;23;20092;-91
2023/05/28 18:53:53;;;;;;;21.55;5.50;;;12.10;70.00;;;;;;6216191;23;20051;-91
2023/05/28 18:56:21;;;;;;;25.63;5.90;;;12.00;70.00;;;;;;6165020;23;20444;-93
2023/05/28 18:58:49;;;;;;;26.27;5.18;;;11.90;70.30;;;;;;6164802;23;20042;-91